createdAt,value
2023-03-17T00:01:25.070Z,11.20
2023-03-17T00:03:53.286Z,13.15
2023-03-17T00:06:28.551Z,14.05
2023-03-17T00:08:57.626Z,19.05
2023-03-17T00:11:26.161Z,13.70
2023-03-17T00:16:50.679Z,14.40
2023-03-17T00:19:22.318Z,21.42
2023-03-17T00:21:51.726Z,19.38
2023-03-17T00:24:19.676Z,13.07
2023-03-17T00:26:48.257Z,12.40
2023-03-17T00:29:16.391Z,13.60
2023-03-17T00:31:45.692Z,14.32
2023-03-17T00:34:18.386Z,15.90
2023-03-17T00:36:48.034Z,20.27
2023-03-17T00:39:17.263Z,12.70
2023-03-17T00:44:13.295Z,14.65
2023-03-17T00:46:42.148Z,16.42
2023-03-17T00:49:20.897Z,21.77
2023-03-17T00:51:49.687Z,13.90
2023-03-17T00:54:19.431Z,10.82
2023-03-17T00:56:48.395Z,15.32
2023-03-17T00:59:22.681Z,14.30
2023-03-17T01:01:51.244Z,18.42
2023-03-17T01:04:20.711Z,13.27
2023-03-17T01:06:49.503Z,12.23
2023-03-17T01:09:19.438Z,18.95
2023-03-17T01:11:48.780Z,14.00
2023-03-17T01:14:17.818Z,15.18
2023-03-17T01:16:47.687Z,15.60
2023-03-17T01:19:17.012Z,15.35
2023-03-17T01:21:48.120Z,15.02
2023-03-17T01:24:15.982Z,11.57
2023-03-17T01:26:43.915Z,15.63
2023-03-17T01:29:12.369Z,15.23
2023-03-17T01:31:40.274Z,22.15
2023-03-17T01:34:08.283Z,13.52
2023-03-17T01:36:36.143Z,13.00
2023-03-17T01:39:07.352Z,9.82
2023-03-17T01:41:35.572Z,15.65
2023-03-17T01:44:03.398Z,15.00
2023-03-17T01:46:34.007Z,18.10
2023-03-17T01:49:11.265Z,12.45
2023-03-17T01:51:47.707Z,18.88
2023-03-17T01:54:19.662Z,11.60
2023-03-17T01:56:52.514Z,14.30
2023-03-17T01:59:24.973Z,10.02
2023-03-17T02:01:57.736Z,11.73
2023-03-17T02:04:26.974Z,13.20
2023-03-17T02:06:58.261Z,10.82
2023-03-17T02:09:28.583Z,11.48
2023-03-17T02:11:57.652Z,11.82
2023-03-17T02:14:25.685Z,11.75
2023-03-17T02:16:53.765Z,14.43
2023-03-17T02:19:21.586Z,11.40
2023-03-17T02:21:52.514Z,10.77
2023-03-17T02:24:27.489Z,18.05
2023-03-17T02:26:58.386Z,10.45
2023-03-17T02:29:26.159Z,18.17
2023-03-17T02:31:54.706Z,12.02
2023-03-17T02:34:22.549Z,10.48
2023-03-17T02:36:51.734Z,13.13
2023-03-17T02:39:19.795Z,14.50
2023-03-17T02:41:47.680Z,15.10
2023-03-17T02:44:16.202Z,12.48
2023-03-17T02:46:44.148Z,12.20
2023-03-17T02:49:12.921Z,12.88
2023-03-17T02:51:40.875Z,10.75
2023-03-17T02:54:10.174Z,11.57
2023-03-17T02:56:38.389Z,11.52
2023-03-17T02:59:07.222Z,13.85
2023-03-17T03:01:35.370Z,17.05
2023-03-17T03:04:03.985Z,11.07
2023-03-17T03:06:32.750Z,11.38
2023-03-17T03:09:00.857Z,13.38
2023-03-17T03:11:30.039Z,12.20
2023-03-17T03:13:58.045Z,11.07
2023-03-17T03:16:26.369Z,17.33
2023-03-17T03:18:54.244Z,12.40
2023-03-17T03:21:22.293Z,8.63
2023-03-17T03:23:50.104Z,15.40
2023-03-17T03:26:18.006Z,8.02
2023-03-17T03:28:47.399Z,13.73
2023-03-17T03:31:15.345Z,7.95
2023-03-17T03:33:43.606Z,8.40
2023-03-17T03:36:12.044Z,18.15
2023-03-17T03:38:40.253Z,11.65
2023-03-17T03:41:08.431Z,9.88
2023-03-17T03:43:36.421Z,17.73
2023-03-17T03:46:06.213Z,15.23
2023-03-17T03:48:34.270Z,8.30
2023-03-17T03:51:04.196Z,8.60
2023-03-17T03:53:32.213Z,8.57
2023-03-17T03:56:00.107Z,11.38
2023-03-17T03:58:28.082Z,14.82
2023-03-17T04:00:55.909Z,11.82
2023-03-17T04:03:25.222Z,8.50
2023-03-17T04:05:53.015Z,7.90
2023-03-17T04:08:21.081Z,9.65
2023-03-17T04:10:48.818Z,8.93
2023-03-17T04:13:16.613Z,10.20
2023-03-17T04:15:44.494Z,8.25
2023-03-17T04:18:14.274Z,11.95
2023-03-17T04:20:43.491Z,8.02
2023-03-17T04:23:11.482Z,7.55
2023-03-17T04:25:39.312Z,5.13
2023-03-17T04:28:09.015Z,10.13
2023-03-17T04:30:36.868Z,6.65
2023-03-17T04:33:04.906Z,10.95
2023-03-17T04:35:32.725Z,10.93
2023-03-17T04:38:01.959Z,9.57
2023-03-17T04:40:30.060Z,11.98
2023-03-17T04:42:58.076Z,6.57
2023-03-17T04:45:26.001Z,8.23
2023-03-17T04:47:53.792Z,6.60
2023-03-17T04:50:21.686Z,6.97
2023-03-17T04:52:49.476Z,10.38
2023-03-17T04:55:19.001Z,10.40
2023-03-17T04:57:47.527Z,6.50
2023-03-17T05:00:16.545Z,8.00
2023-03-17T05:02:44.501Z,8.73
2023-03-17T05:05:12.262Z,12.82
2023-03-17T05:07:40.164Z,7.47
2023-03-17T05:10:09.473Z,4.43
2023-03-17T05:12:38.698Z,5.65
2023-03-17T05:15:10.028Z,10.43
2023-03-17T05:17:39.109Z,6.10
2023-03-17T05:20:08.563Z,9.45
2023-03-17T05:22:36.795Z,11.30
2023-03-17T05:25:05.850Z,9.07
2023-03-17T05:27:34.113Z,5.88
2023-03-17T05:30:03.769Z,9.07
2023-03-17T05:32:32.138Z,7.07
2023-03-17T05:35:00.210Z,7.18
2023-03-17T05:37:28.764Z,4.00
2023-03-17T05:39:56.737Z,5.05
2023-03-17T05:42:24.631Z,5.80
2023-03-17T05:44:52.486Z,4.95
2023-03-17T05:47:22.832Z,3.05
2023-03-17T05:49:50.845Z,3.78
2023-03-17T05:52:18.559Z,5.55
2023-03-17T05:54:48.961Z,3.42
2023-03-17T05:57:17.177Z,5.18
2023-03-17T05:59:45.055Z,4.32
2023-03-17T06:02:13.665Z,4.30
2023-03-17T06:04:43.190Z,4.38
2023-03-17T06:07:12.092Z,4.05
2023-03-17T06:09:40.188Z,4.20
2023-03-17T06:12:09.411Z,3.97
2023-03-17T06:14:37.473Z,4.40
2023-03-17T06:17:05.549Z,6.50
2023-03-17T06:19:33.288Z,8.68
2023-03-17T06:22:02.739Z,5.25
2023-03-17T06:24:30.597Z,6.50
2023-03-17T06:26:58.344Z,8.63
2023-03-17T06:29:26.512Z,3.05
2023-03-17T06:31:54.410Z,2.88
2023-03-17T06:34:24.146Z,6.65
2023-03-17T06:36:52.253Z,5.55
2023-03-17T06:39:21.430Z,3.97
2023-03-17T06:41:49.332Z,3.20
2023-03-17T06:44:17.685Z,9.57
2023-03-17T06:46:45.509Z,6.75
2023-03-17T06:49:13.514Z,2.75
2023-03-17T06:51:41.470Z,8.35
2023-03-17T06:54:09.680Z,8.25
2023-03-17T06:56:39.065Z,5.28
2023-03-17T06:59:06.885Z,2.97
2023-03-17T07:01:34.793Z,2.70
2023-03-17T07:04:02.605Z,2.55
2023-03-17T07:06:31.041Z,3.55
2023-03-17T07:09:00.981Z,4.45
2023-03-17T07:11:30.787Z,7.97
2023-03-17T07:14:00.301Z,4.88
2023-03-17T07:16:28.922Z,10.45
2023-03-17T07:18:56.760Z,5.10
2023-03-17T07:21:24.646Z,5.93
2023-03-17T07:23:52.404Z,6.68
2023-03-17T07:26:20.245Z,5.45
2023-03-17T07:28:48.239Z,6.03
2023-03-17T07:31:17.611Z,3.58
2023-03-17T07:33:45.571Z,5.20
2023-03-17T07:36:13.547Z,6.20
2023-03-17T07:38:41.744Z,4.18
2023-03-17T07:41:10.171Z,4.15
2023-03-17T07:43:39.009Z,12.10
2023-03-17T07:46:07.482Z,5.22
2023-03-17T07:48:40.988Z,4.43
2023-03-17T07:51:14.107Z,6.00
2023-03-17T07:53:42.009Z,7.97
2023-03-17T07:56:10.531Z,3.08
2023-03-17T07:58:38.466Z,5.72
2023-03-17T08:01:06.862Z,2.92
2023-03-17T08:03:38.149Z,7.57
2023-03-17T08:06:08.837Z,4.50
2023-03-17T08:08:36.970Z,2.80
2023-03-17T08:11:06.465Z,20.77
2023-03-17T08:13:34.854Z,5.18
2023-03-17T08:16:02.708Z,6.38
2023-03-17T08:18:31.026Z,3.20
2023-03-17T08:21:00.225Z,7.18
2023-03-17T08:23:28.130Z,4.80
2023-03-17T08:25:58.240Z,5.88
2023-03-17T08:28:28.099Z,5.90
2023-03-17T08:30:57.787Z,7.60
2023-03-17T08:33:25.759Z,7.25
2023-03-17T08:35:53.656Z,3.45
2023-03-17T08:38:22.774Z,5.35
2023-03-17T08:40:50.946Z,4.40
2023-03-17T08:43:18.850Z,4.30
2023-03-17T08:45:46.779Z,3.20
2023-03-17T08:48:15.291Z,3.42
2023-03-17T08:50:43.313Z,4.28
2023-03-17T08:53:11.918Z,11.55
2023-03-17T08:55:41.240Z,6.03
2023-03-17T08:58:09.442Z,6.50
2023-03-17T09:00:37.214Z,3.78
2023-03-17T09:03:05.764Z,7.05
2023-03-17T09:05:36.914Z,5.07
2023-03-17T09:08:06.248Z,5.85
2023-03-17T09:10:34.371Z,3.75
2023-03-17T09:13:04.665Z,6.00
2023-03-17T09:15:34.193Z,4.53
2023-03-17T09:18:03.325Z,5.43
2023-03-17T09:20:31.540Z,4.25
2023-03-17T09:22:59.734Z,2.72
2023-03-17T09:25:27.811Z,5.82
2023-03-17T09:27:56.530Z,15.70
2023-03-17T09:30:26.969Z,6.75
2023-03-17T09:32:54.957Z,7.38
2023-03-17T09:35:22.825Z,7.28
2023-03-17T09:37:51.591Z,6.18
2023-03-17T09:40:26.319Z,3.50
2023-03-17T09:43:08.089Z,6.32
2023-03-17T09:45:42.917Z,5.53
2023-03-17T09:48:29.719Z,7.18
2023-03-17T09:51:01.545Z,6.75
2023-03-17T09:53:34.275Z,4.15
2023-03-17T09:56:07.173Z,2.88
2023-03-17T09:58:36.519Z,10.35
2023-03-17T10:01:06.323Z,7.43
2023-03-17T10:03:34.690Z,4.97
2023-03-17T10:06:34.598Z,4.53
2023-03-17T10:09:11.465Z,3.70
2023-03-17T10:11:43.033Z,2.55
2023-03-17T10:14:39.668Z,7.47
2023-03-17T10:17:17.748Z,4.03
2023-03-17T10:19:49.635Z,5.22
2023-03-17T10:22:23.838Z,3.00
2023-03-17T10:24:53.712Z,3.45
2023-03-17T10:27:22.480Z,4.65
2023-03-17T10:29:50.899Z,7.05
2023-03-17T10:32:20.091Z,6.10
2023-03-17T10:34:49.382Z,5.47
2023-03-17T10:37:19.903Z,5.82
2023-03-17T10:39:49.572Z,5.95
2023-03-17T10:42:23.758Z,4.88
2023-03-17T10:44:55.563Z,3.97
2023-03-17T10:47:32.687Z,7.45
2023-03-17T10:50:05.669Z,5.00
2023-03-17T10:52:39.646Z,4.50
2023-03-17T10:55:09.113Z,8.45
2023-03-17T10:57:38.915Z,5.43
2023-03-17T11:00:15.716Z,3.28
2023-03-17T11:02:49.335Z,2.97
2023-03-17T11:05:23.590Z,1.92
2023-03-17T11:07:57.627Z,4.18
2023-03-17T11:10:27.946Z,5.65
2023-03-17T11:13:00.508Z,6.35
2023-03-17T11:15:33.807Z,5.32
2023-03-17T11:18:04.815Z,2.40
2023-03-17T11:20:47.726Z,2.40
2023-03-17T11:23:39.645Z,13.60
2023-03-17T11:26:22.874Z,5.70
2023-03-17T11:28:58.596Z,5.50
2023-03-17T11:31:31.106Z,5.60
2023-03-17T11:34:07.007Z,3.88
2023-03-17T11:36:48.462Z,4.72
2023-03-17T11:39:21.967Z,8.35
2023-03-17T11:42:01.952Z,8.20
2023-03-17T11:45:02.577Z,12.05
2023-03-17T11:47:39.662Z,6.97
2023-03-17T11:50:24.311Z,7.95
2023-03-17T11:53:03.652Z,6.35
2023-03-17T11:55:42.784Z,6.60
2023-03-17T11:58:18.723Z,7.72
2023-03-17T12:00:52.570Z,3.83
2023-03-17T12:03:27.573Z,5.40
2023-03-17T12:06:01.590Z,2.80
2023-03-17T12:08:38.784Z,6.13
2023-03-17T12:11:10.615Z,6.00
2023-03-17T12:13:43.083Z,7.28
2023-03-17T12:16:17.525Z,6.85
2023-03-17T12:18:56.801Z,5.03
2023-03-17T12:21:32.881Z,4.72
2023-03-17T12:24:05.094Z,12.68
2023-03-17T12:26:38.219Z,9.25
2023-03-17T12:29:12.996Z,7.43
2023-03-17T12:31:47.099Z,6.45
2023-03-17T12:34:21.500Z,8.93
2023-03-17T12:36:51.458Z,4.53
2023-03-17T12:39:22.988Z,8.10
2023-03-17T12:42:17.644Z,5.40
2023-03-17T12:45:01.979Z,5.57
2023-03-17T12:47:45.159Z,5.95
2023-03-17T12:50:42.065Z,7.03
2023-03-17T12:53:30.746Z,7.95
2023-03-17T12:56:03.149Z,4.30
2023-03-17T12:58:36.565Z,6.43
2023-03-17T13:01:16.000Z,8.35
2023-03-17T13:03:59.649Z,7.57
2023-03-17T13:06:31.353Z,8.52
2023-03-17T13:09:34.427Z,7.68
2023-03-17T13:12:03.856Z,7.45
2023-03-17T13:14:43.298Z,4.47
2023-03-17T13:17:34.213Z,4.43
2023-03-17T13:20:20.258Z,7.30
2023-03-17T13:23:04.529Z,5.40
2023-03-17T13:25:35.995Z,7.63
2023-03-17T13:28:27.060Z,4.55
2023-03-17T13:31:11.380Z,7.18
2023-03-17T13:33:46.745Z,10.80
2023-03-17T13:36:29.468Z,5.72
2023-03-17T13:39:24.640Z,8.60
2023-03-17T13:42:18.162Z,7.78
2023-03-17T13:45:08.681Z,5.30
2023-03-17T13:47:39.975Z,9.48
2023-03-17T13:50:13.617Z,4.57
2023-03-17T13:52:47.179Z,7.03
2023-03-17T13:55:36.044Z,5.18
2023-03-17T13:58:33.202Z,5.53
2023-03-17T14:01:06.751Z,8.43
2023-03-17T14:03:47.426Z,6.32
2023-03-17T14:06:16.358Z,6.32
2023-03-17T14:08:48.783Z,7.88
2023-03-17T14:11:29.897Z,6.13
2023-03-17T14:14:31.163Z,8.50
2023-03-17T14:17:05.143Z,11.82
2023-03-17T14:19:33.432Z,8.48
2023-03-17T14:22:06.343Z,11.27
2023-03-17T14:24:35.073Z,7.28
2023-03-17T14:27:07.910Z,5.95
2023-03-17T14:29:38.078Z,9.07
2023-03-17T14:32:08.748Z,8.75
2023-03-17T14:34:43.942Z,4.68
2023-03-17T14:37:12.986Z,9.30
2023-03-17T14:39:46.284Z,8.45
2023-03-17T14:42:14.294Z,7.35
2023-03-17T14:44:44.696Z,4.50
2023-03-17T14:47:21.020Z,6.82
2023-03-17T14:49:49.437Z,7.50
2023-03-17T14:52:21.152Z,9.43
2023-03-17T14:54:52.910Z,4.55
2023-03-17T14:57:24.927Z,12.77
2023-03-17T15:00:02.605Z,6.43
2023-03-17T15:02:35.394Z,7.63
2023-03-17T15:05:13.876Z,6.20
2023-03-17T15:07:42.752Z,4.07
2023-03-17T15:10:17.062Z,10.32
2023-03-17T15:12:46.702Z,8.60
2023-03-17T15:15:23.869Z,9.95
2023-03-17T15:17:53.290Z,21.65
2023-03-17T15:20:21.721Z,9.02
2023-03-17T15:22:56.916Z,12.27
2023-03-17T15:25:29.008Z,7.20
2023-03-17T15:27:57.107Z,10.80
2023-03-17T15:30:37.461Z,5.50
2023-03-17T15:33:20.560Z,10.18
2023-03-17T15:35:48.519Z,9.40
2023-03-17T15:38:16.440Z,5.43
2023-03-17T15:40:44.393Z,8.70
2023-03-17T15:43:15.065Z,8.60
2023-03-17T15:45:45.187Z,8.40
2023-03-17T15:48:20.427Z,9.90
2023-03-17T15:50:49.627Z,15.55
2023-03-17T15:53:17.918Z,11.82
2023-03-17T15:55:46.182Z,9.10
2023-03-17T15:58:14.145Z,8.38
2023-03-17T16:00:42.514Z,7.80
2023-03-17T16:03:19.662Z,8.13
2023-03-17T16:05:47.561Z,8.85
2023-03-17T16:08:17.820Z,9.50
2023-03-17T16:10:46.472Z,8.23
2023-03-17T16:13:15.529Z,9.93
2023-03-17T16:15:47.249Z,12.48
2023-03-17T16:18:19.243Z,9.77
2023-03-17T16:20:48.885Z,6.72
2023-03-17T16:23:20.001Z,10.25
2023-03-17T16:25:48.036Z,8.70
2023-03-17T16:28:17.691Z,10.25
2023-03-17T16:30:46.434Z,11.98
2023-03-17T16:33:19.669Z,8.07
2023-03-17T16:35:49.546Z,12.07
2023-03-17T16:38:20.903Z,6.63
2023-03-17T16:40:51.531Z,14.98
2023-03-17T16:43:25.578Z,11.00
2023-03-17T16:45:55.762Z,12.32
2023-03-17T16:48:25.949Z,10.13
2023-03-17T16:50:54.430Z,20.42
2023-03-17T16:53:22.914Z,13.23
2023-03-17T16:55:52.182Z,12.52
2023-03-17T16:58:22.177Z,8.43
2023-03-17T17:00:52.184Z,11.65
2023-03-17T17:03:20.281Z,16.73
2023-03-17T17:05:49.631Z,13.20
2023-03-17T17:08:17.411Z,17.67
2023-03-17T17:10:45.395Z,11.00
2023-03-17T17:13:13.500Z,14.02
2023-03-17T17:15:44.152Z,9.25
2023-03-17T17:18:15.891Z,15.70
2023-03-17T17:20:45.253Z,14.63
2023-03-17T17:23:17.302Z,14.48
2023-03-17T17:25:45.396Z,18.88
2023-03-17T17:28:17.631Z,13.00
2023-03-17T17:30:47.915Z,15.02
2023-03-17T17:33:16.964Z,22.58
2023-03-17T17:35:45.864Z,16.90
2023-03-17T17:38:21.055Z,15.75
2023-03-17T17:40:49.833Z,16.80
2023-03-17T17:43:19.132Z,18.13
2023-03-17T17:45:49.385Z,16.25
2023-03-17T17:48:18.270Z,17.83
2023-03-17T17:50:46.592Z,14.50
2023-03-17T17:53:14.856Z,18.58
2023-03-17T17:55:45.173Z,23.20
2023-03-17T17:58:14.370Z,16.90
2023-03-17T18:00:42.403Z,18.40
2023-03-17T18:03:10.369Z,19.40
2023-03-17T18:05:39.579Z,16.63
2023-03-17T18:08:08.053Z,26.17
2023-03-17T18:10:36.146Z,16.02
2023-03-17T18:13:05.658Z,20.05
2023-03-17T18:15:33.870Z,15.30
2023-03-17T18:18:02.134Z,19.50
2023-03-17T18:20:30.439Z,14.20
2023-03-17T18:22:58.747Z,15.63
2023-03-17T18:25:27.178Z,22.23
2023-03-17T18:27:56.325Z,17.17
2023-03-17T18:30:27.361Z,19.65
2023-03-17T18:32:58.294Z,14.98
2023-03-17T18:35:28.540Z,20.67
2023-03-17T18:37:57.930Z,16.25
2023-03-17T18:40:26.486Z,17.63
2023-03-17T18:42:54.974Z,16.58
2023-03-17T18:45:22.901Z,20.58
2023-03-17T18:47:52.079Z,19.00
2023-03-17T18:50:21.910Z,17.65
2023-03-17T18:52:50.077Z,18.60
2023-03-17T18:55:18.227Z,18.17
2023-03-17T18:57:46.770Z,25.35
2023-03-17T19:00:17.421Z,20.90
2023-03-17T19:02:46.227Z,17.40
2023-03-17T19:05:16.193Z,16.10
2023-03-17T19:07:44.057Z,18.42
2023-03-17T19:10:13.954Z,26.23
2023-03-17T19:12:42.413Z,20.55
2023-03-17T19:15:12.507Z,23.50
2023-03-17T19:17:41.339Z,22.38
2023-03-17T19:20:11.127Z,24.10
2023-03-17T19:22:40.371Z,19.90
2023-03-17T19:25:10.003Z,22.92
2023-03-17T19:27:41.321Z,25.95
2023-03-17T19:30:10.393Z,27.13
2023-03-17T19:32:40.570Z,22.25
2023-03-17T19:35:08.937Z,28.17
2023-03-17T19:37:38.112Z,27.33
2023-03-17T19:40:09.798Z,33.33
2023-03-17T19:42:37.985Z,31.88
2023-03-17T19:45:06.712Z,22.98
2023-03-17T19:47:34.710Z,26.60
2023-03-17T19:50:02.508Z,28.80
2023-03-17T19:52:30.433Z,25.48
2023-03-17T19:54:58.680Z,25.05
2023-03-17T19:57:28.103Z,29.17
2023-03-17T19:59:56.189Z,28.92
2023-03-17T20:02:23.961Z,31.17
2023-03-17T20:04:51.928Z,32.72
2023-03-17T20:07:19.807Z,27.83
2023-03-17T20:09:48.586Z,31.83
2023-03-17T20:12:16.793Z,24.42
2023-03-17T20:14:46.021Z,35.92
2023-03-17T20:17:15.376Z,32.90
2023-03-17T20:19:43.202Z,36.63
2023-03-17T20:22:11.612Z,26.20
2023-03-17T20:24:39.384Z,32.42
2023-03-17T20:27:08.011Z,29.33
2023-03-17T20:29:35.799Z,24.83
2023-03-17T20:32:05.496Z,25.60
2023-03-17T20:34:34.604Z,29.70
2023-03-17T20:37:02.816Z,31.50
2023-03-17T20:39:30.749Z,30.55
2023-03-17T20:41:58.561Z,29.60
2023-03-17T20:44:26.319Z,25.73
2023-03-17T20:46:54.880Z,24.38
2023-03-17T20:49:24.047Z,29.85
2023-03-17T20:51:51.944Z,25.42
2023-03-17T20:54:20.037Z,26.92
2023-03-17T20:56:52.314Z,27.67
2023-03-17T20:59:20.446Z,27.38
2023-03-17T21:01:48.303Z,24.08
2023-03-17T21:04:17.676Z,29.15
2023-03-17T21:06:46.904Z,33.33
2023-03-17T21:09:14.736Z,28.13
2023-03-17T21:11:42.682Z,38.75
2023-03-17T21:14:13.320Z,35.50
2023-03-17T21:16:42.653Z,32.75
2023-03-17T21:19:13.569Z,26.73
2023-03-17T21:21:41.354Z,29.90
2023-03-17T21:24:27.629Z,23.45
2023-03-17T21:26:55.785Z,23.30
2023-03-17T21:29:23.597Z,24.63
2023-03-17T21:31:51.574Z,26.67
2023-03-17T21:34:19.936Z,28.50
2023-03-17T21:36:47.870Z,31.27
2023-03-17T21:39:17.708Z,28.17
2023-03-17T21:41:46.220Z,28.60
2023-03-17T21:44:15.946Z,27.40
2023-03-17T21:46:43.936Z,24.55
2023-03-17T21:49:13.208Z,25.15
2023-03-17T21:51:41.057Z,24.58
2023-03-17T21:54:08.852Z,30.35
2023-03-17T21:56:38.675Z,29.77
2023-03-17T21:59:11.014Z,28.17
2023-03-17T22:01:39.039Z,30.05
2023-03-17T22:04:07.518Z,28.98
2023-03-17T22:06:35.476Z,27.38
2023-03-17T22:09:04.397Z,26.92
2023-03-17T22:11:32.282Z,25.50
2023-03-17T22:14:01.879Z,23.70
2023-03-17T22:16:30.041Z,30.42
2023-03-17T22:18:58.090Z,32.13
2023-03-17T22:21:26.137Z,28.13
2023-03-17T22:23:53.900Z,26.83
2023-03-17T22:26:22.998Z,26.98
2023-03-17T22:28:51.506Z,24.65
2023-03-17T22:31:22.882Z,31.45
2023-03-17T22:33:52.665Z,31.48
2023-03-17T22:36:20.737Z,26.20
2023-03-17T22:38:48.722Z,27.23
2023-03-17T22:41:18.325Z,29.70
2023-03-17T22:43:47.060Z,28.70
2023-03-17T22:46:16.395Z,29.88
2023-03-17T22:48:46.769Z,23.70
2023-03-17T22:51:17.508Z,32.92
2023-03-17T22:53:46.095Z,24.42
2023-03-17T22:56:15.691Z,29.00
2023-03-17T22:58:43.936Z,30.08
2023-03-17T23:01:13.422Z,25.90
2023-03-17T23:03:42.087Z,34.83
2023-03-17T23:06:13.106Z,29.73
2023-03-17T23:08:42.810Z,27.38
2023-03-17T23:11:13.515Z,30.23
2023-03-17T23:13:42.196Z,29.10
2023-03-17T23:16:10.468Z,29.10
2023-03-17T23:18:38.387Z,30.20
2023-03-17T23:21:07.492Z,24.35
2023-03-17T23:23:38.114Z,28.63
2023-03-17T23:26:06.349Z,27.15
2023-03-17T23:28:34.284Z,30.88
2023-03-17T23:31:02.779Z,27.95
2023-03-17T23:33:30.978Z,26.42
2023-03-17T23:35:58.827Z,30.13
2023-03-17T23:38:26.602Z,30.73
2023-03-17T23:40:57.325Z,29.83
2023-03-17T23:43:25.986Z,22.45
2023-03-17T23:45:54.307Z,29.40
2023-03-17T23:48:22.870Z,33.72
2023-03-17T23:50:52.699Z,28.67
2023-03-17T23:53:21.129Z,31.08
2023-03-17T23:55:49.294Z,28.33
2023-03-17T23:58:18.931Z,31.38
